createdAt,value
2019-03-27T00:01:34.463Z,2.77
2019-03-27T00:04:03.006Z,3.10
2019-03-27T00:06:31.497Z,3.20
2019-03-27T00:08:59.979Z,3.57
2019-03-27T00:11:28.469Z,3.00
2019-03-27T00:13:56.978Z,3.77
2019-03-27T00:16:25.518Z,3.43
2019-03-27T00:18:53.998Z,3.00
2019-03-27T00:21:22.487Z,3.17
2019-03-27T00:23:50.962Z,3.20
2019-03-27T00:26:19.516Z,3.10
2019-03-27T00:28:47.988Z,2.53
2019-03-27T00:31:16.476Z,3.13
2019-03-27T00:33:44.968Z,3.07
2019-03-27T00:36:13.480Z,3.40
2019-03-27T00:38:41.952Z,2.87
2019-03-27T00:41:10.484Z,2.83
2019-03-27T00:43:38.988Z,3.30
2019-03-27T00:46:07.468Z,3.50
2019-03-27T00:48:35.962Z,3.50
2019-03-27T00:51:11.663Z,3.37
2019-03-27T00:53:40.158Z,3.70
2019-03-27T00:56:08.709Z,3.27
2019-03-27T00:58:37.214Z,3.27
2019-03-27T01:01:08.233Z,3.60
2019-03-27T01:03:36.799Z,3.20
2019-03-27T01:06:05.962Z,4.20
2019-03-27T01:08:34.521Z,3.70
2019-03-27T01:11:03.069Z,3.53
2019-03-27T01:13:31.791Z,3.70
2019-03-27T01:16:00.260Z,4.00
2019-03-27T01:18:28.762Z,3.43
2019-03-27T01:20:57.311Z,3.97
2019-03-27T01:23:25.820Z,4.20
2019-03-27T01:25:54.364Z,4.53
2019-03-27T01:28:22.949Z,4.33
2019-03-27T01:30:51.430Z,4.17
2019-03-27T01:33:19.982Z,3.97
2019-03-27T01:35:48.463Z,4.10
2019-03-27T01:38:16.959Z,4.30
2019-03-27T01:40:45.431Z,3.87
2019-03-27T01:43:14.001Z,3.40
2019-03-27T01:45:52.517Z,3.70
2019-03-27T01:48:12.742Z,3.00
2019-03-27T01:50:41.205Z,4.00
2019-03-27T01:53:09.686Z,3.53
2019-03-27T01:55:38.157Z,3.67
2019-03-27T01:58:06.657Z,3.70
2019-03-27T02:00:35.187Z,3.27
2019-03-27T02:03:03.654Z,3.47
2019-03-27T02:05:32.149Z,3.47
2019-03-27T02:08:00.761Z,4.13
2019-03-27T02:10:29.326Z,4.40
2019-03-27T02:12:57.793Z,5.00
2019-03-27T02:15:26.335Z,4.17
2019-03-27T02:17:54.797Z,5.30
2019-03-27T02:20:23.284Z,5.60
2019-03-27T02:22:51.758Z,6.23
2019-03-27T02:25:20.336Z,6.13
2019-03-27T02:27:48.879Z,6.80
2019-03-27T02:30:17.426Z,6.47
2019-03-27T02:32:45.910Z,6.60
2019-03-27T02:35:14.473Z,7.30
2019-03-27T02:37:43.005Z,6.97
2019-03-27T02:40:14.122Z,7.10
2019-03-27T02:42:42.599Z,7.87
2019-03-27T02:45:11.301Z,8.70
2019-03-27T02:47:39.798Z,6.57
2019-03-27T02:50:08.559Z,6.43
2019-03-27T02:52:37.050Z,8.13
2019-03-27T02:55:07.460Z,7.43
2019-03-27T02:57:36.274Z,8.90
2019-03-27T03:00:08.116Z,7.33
2019-03-27T03:02:36.649Z,7.83
2019-03-27T03:05:07.383Z,7.13
2019-03-27T03:07:36.796Z,9.23
2019-03-27T03:10:07.820Z,8.60
2019-03-27T03:12:36.368Z,7.80
2019-03-27T03:15:07.200Z,8.10
2019-03-27T03:17:35.669Z,9.17
2019-03-27T03:20:06.689Z,8.03
2019-03-27T03:22:35.237Z,7.87
2019-03-27T03:25:04.085Z,8.40
2019-03-27T03:27:32.618Z,9.53
2019-03-27T03:30:01.197Z,8.83
2019-03-27T03:32:29.747Z,8.07
2019-03-27T03:34:58.312Z,8.30
2019-03-27T03:37:26.855Z,8.70
2019-03-27T03:39:55.372Z,8.63
2019-03-27T03:42:23.910Z,8.80
2019-03-27T03:44:52.486Z,8.97
2019-03-27T03:47:21.031Z,8.10
2019-03-27T03:49:49.522Z,9.00
2019-03-27T03:52:20.037Z,8.80
2019-03-27T03:54:49.515Z,8.40
2019-03-27T03:57:18.532Z,10.07
2019-03-27T03:59:48.432Z,9.50
2019-03-27T04:02:17.117Z,10.03
2019-03-27T04:04:48.155Z,9.93
2019-03-27T04:07:16.637Z,9.93
2019-03-27T04:09:45.200Z,10.00
2019-03-27T04:12:13.763Z,8.10
2019-03-27T04:14:42.340Z,9.77
2019-03-27T04:17:17.338Z,8.70
2019-03-27T04:19:41.119Z,9.83
2019-03-27T04:22:09.695Z,8.43
2019-03-27T04:24:38.242Z,8.60
2019-03-27T04:27:06.843Z,9.40
2019-03-27T04:29:35.398Z,8.80
2019-03-27T04:32:03.893Z,9.70
2019-03-27T04:34:32.366Z,9.70
2019-03-27T04:37:00.857Z,8.57
2019-03-27T04:39:29.327Z,8.37
2019-03-27T04:41:57.842Z,8.37
2019-03-27T04:44:26.390Z,8.80
2019-03-27T04:46:54.878Z,8.00
2019-03-27T04:49:23.428Z,8.40
2019-03-27T04:51:51.929Z,7.03
2019-03-27T04:54:20.475Z,6.97
2019-03-27T04:56:48.977Z,7.40
2019-03-27T04:59:17.446Z,8.70
2019-03-27T05:01:45.974Z,8.33
2019-03-27T05:04:14.796Z,6.70
2019-03-27T05:06:43.294Z,7.53
2019-03-27T05:09:11.769Z,8.93
2019-03-27T05:11:40.352Z,7.70
2019-03-27T05:14:08.920Z,6.90
2019-03-27T05:16:37.455Z,7.40
2019-03-27T05:19:05.998Z,6.57
2019-03-27T05:21:34.542Z,7.77
2019-03-27T05:24:03.113Z,6.93
2019-03-27T05:26:31.605Z,6.50
2019-03-27T05:29:00.091Z,7.00
2019-03-27T05:31:28.566Z,7.83
2019-03-27T05:33:57.070Z,7.87
2019-03-27T05:36:25.604Z,8.23
2019-03-27T05:38:54.138Z,8.50
2019-03-27T05:41:22.617Z,8.93
2019-03-27T05:43:51.141Z,8.63
2019-03-27T05:46:19.692Z,10.07
2019-03-27T05:48:48.283Z,8.30
2019-03-27T05:51:16.752Z,9.10
2019-03-27T05:53:45.275Z,8.77
2019-03-27T05:56:13.814Z,9.20
2019-03-27T05:58:42.398Z,8.57
2019-03-27T06:01:10.978Z,8.03
2019-03-27T06:03:39.543Z,7.50
2019-03-27T06:06:08.041Z,7.60
2019-03-27T06:08:36.607Z,7.20
2019-03-27T06:11:05.094Z,8.47
2019-03-27T06:13:33.612Z,8.97
2019-03-27T06:16:02.154Z,8.90
2019-03-27T06:18:32.911Z,9.13
2019-03-27T06:21:01.405Z,9.50
2019-03-27T06:23:29.991Z,9.03
2019-03-27T06:26:01.604Z,10.83
2019-03-27T06:28:30.181Z,10.23
2019-03-27T06:31:01.552Z,11.20
2019-03-27T06:33:30.129Z,11.50
2019-03-27T06:35:58.696Z,10.10
2019-03-27T06:38:27.287Z,10.67
2019-03-27T06:40:55.793Z,11.00
2019-03-27T06:43:24.367Z,11.07
2019-03-27T06:45:52.919Z,10.73
2019-03-27T06:48:26.488Z,10.17
2019-03-27T06:50:51.695Z,11.80
2019-03-27T06:53:20.276Z,10.10
2019-03-27T06:55:48.748Z,9.33
2019-03-27T06:58:17.250Z,9.13
2019-03-27T07:00:45.838Z,9.50
2019-03-27T07:03:14.434Z,10.90
2019-03-27T07:05:42.994Z,9.97
2019-03-27T07:08:11.754Z,11.00
2019-03-27T07:10:40.525Z,8.93
2019-03-27T07:13:09.121Z,9.43
2019-03-27T07:15:37.758Z,10.00
2019-03-27T07:18:06.443Z,9.07
2019-03-27T07:20:35.119Z,8.97
2019-03-27T07:23:03.729Z,8.20
2019-03-27T07:25:32.426Z,8.30
2019-03-27T07:28:01.122Z,8.10
2019-03-27T07:30:29.811Z,7.87
2019-03-27T07:32:58.295Z,8.03
2019-03-27T07:35:26.866Z,8.13
2019-03-27T07:37:55.321Z,8.00
2019-03-27T07:40:23.813Z,7.87
2019-03-27T07:42:52.353Z,7.20
2019-03-27T07:45:20.863Z,6.43
2019-03-27T07:47:49.398Z,7.40
2019-03-27T07:50:17.992Z,6.30
2019-03-27T07:52:46.521Z,7.60
2019-03-27T07:55:19.523Z,6.83
2019-03-27T07:57:45.515Z,6.20
2019-03-27T08:00:17.507Z,7.03
2019-03-27T08:02:46.053Z,6.00
2019-03-27T08:05:15.093Z,6.17
2019-03-27T08:07:43.579Z,6.63
2019-03-27T08:10:12.744Z,6.33
2019-03-27T08:12:41.205Z,5.60
2019-03-27T08:15:10.394Z,7.07
2019-03-27T08:17:38.880Z,5.97
2019-03-27T08:20:08.125Z,5.33
2019-03-27T08:22:36.649Z,6.00
2019-03-27T08:25:09.836Z,5.10
2019-03-27T08:27:38.383Z,5.97
2019-03-27T08:30:10.066Z,5.67
2019-03-27T08:32:38.621Z,5.40
2019-03-27T08:35:07.961Z,4.90
2019-03-27T08:37:36.571Z,5.37
2019-03-27T08:40:07.451Z,6.47
2019-03-27T08:42:37.038Z,5.37
2019-03-27T08:45:07.826Z,5.43
2019-03-27T08:47:36.295Z,5.60
2019-03-27T08:50:08.981Z,6.07
2019-03-27T08:52:37.466Z,5.43
2019-03-27T08:55:06.665Z,5.83
2019-03-27T08:57:35.134Z,4.97
2019-03-27T09:00:05.330Z,5.10
2019-03-27T09:02:33.812Z,6.17
2019-03-27T09:05:02.380Z,5.60
2019-03-27T09:07:30.942Z,5.93
2019-03-27T09:09:59.442Z,6.40
2019-03-27T09:12:27.974Z,5.47
2019-03-27T09:14:56.454Z,5.10
2019-03-27T09:17:25.029Z,6.10
2019-03-27T09:19:53.570Z,6.70
2019-03-27T09:22:22.072Z,6.27
2019-03-27T09:24:50.622Z,6.67
2019-03-27T09:27:19.200Z,6.93
2019-03-27T09:29:47.671Z,6.23
2019-03-27T09:32:16.181Z,6.60
2019-03-27T09:34:44.731Z,5.90
2019-03-27T09:37:13.258Z,6.90
2019-03-27T09:39:41.742Z,6.23
2019-03-27T09:42:29.668Z,6.47
2019-03-27T09:44:58.250Z,5.70
2019-03-27T09:47:26.822Z,5.90
2019-03-27T09:49:55.369Z,6.30
2019-03-27T09:52:23.943Z,5.60
2019-03-27T09:54:52.471Z,6.23
2019-03-27T09:57:21.011Z,5.80
2019-03-27T09:59:49.548Z,5.30
2019-03-27T10:02:18.123Z,4.47
2019-03-27T10:04:46.673Z,5.30
2019-03-27T10:07:15.272Z,5.47
2019-03-27T10:09:43.822Z,5.50
2019-03-27T10:12:12.394Z,4.37
2019-03-27T10:14:40.951Z,4.73
2019-03-27T10:17:09.556Z,4.80
2019-03-27T10:19:38.084Z,4.70
2019-03-27T10:22:06.687Z,6.10
2019-03-27T10:24:35.254Z,4.37
2019-03-27T10:27:03.910Z,5.03
2019-03-27T10:29:32.448Z,5.10
2019-03-27T10:32:01.066Z,5.47
2019-03-27T10:34:29.636Z,5.50
2019-03-27T10:36:58.196Z,5.03
2019-03-27T10:39:26.702Z,5.57
2019-03-27T10:41:55.211Z,5.33
2019-03-27T10:44:23.724Z,5.50
2019-03-27T10:46:52.276Z,5.80
2019-03-27T10:49:20.757Z,5.50
2019-03-27T10:51:49.264Z,5.50
2019-03-27T10:54:17.779Z,5.70
2019-03-27T10:56:46.341Z,5.07
2019-03-27T10:59:14.889Z,5.77
2019-03-27T11:01:43.457Z,5.70
2019-03-27T11:04:12.035Z,5.97
2019-03-27T11:06:40.592Z,6.23
2019-03-27T11:09:09.901Z,6.90
2019-03-27T11:11:39.993Z,6.10
2019-03-27T11:14:08.571Z,6.63
2019-03-27T11:16:37.163Z,5.80
2019-03-27T11:19:05.743Z,5.70
2019-03-27T11:21:34.338Z,6.60
2019-03-27T11:24:02.890Z,6.57
2019-03-27T11:26:31.452Z,6.10
2019-03-27T11:29:00.018Z,6.00
2019-03-27T11:31:28.581Z,6.70
2019-03-27T11:33:57.186Z,7.37
2019-03-27T11:36:25.752Z,5.50
2019-03-27T11:38:54.968Z,6.73
2019-03-27T11:41:23.504Z,5.37
2019-03-27T11:43:55.111Z,6.80
2019-03-27T11:46:22.203Z,5.67
2019-03-27T11:48:50.725Z,4.87
2019-03-27T11:51:19.265Z,4.73
2019-03-27T11:53:47.776Z,5.63
2019-03-27T11:56:16.311Z,5.43
2019-03-27T11:58:44.905Z,5.33
2019-03-27T12:01:13.397Z,5.90
2019-03-27T12:03:41.891Z,4.50
2019-03-27T12:06:10.372Z,5.60
2019-03-27T12:08:38.897Z,5.40
2019-03-27T12:11:07.518Z,5.30
2019-03-27T12:13:36.139Z,5.47
2019-03-27T12:16:04.756Z,5.97
2019-03-27T12:18:33.282Z,4.70
2019-03-27T12:21:01.744Z,5.10
2019-03-27T12:23:30.239Z,3.70
2019-03-27T12:25:58.718Z,4.37
2019-03-27T12:28:27.386Z,4.23
2019-03-27T12:30:55.949Z,3.67
2019-03-27T12:33:24.534Z,4.63
2019-03-27T12:35:53.076Z,3.97
2019-03-27T12:38:21.589Z,4.37
2019-03-27T12:40:50.155Z,3.90
2019-03-27T12:43:18.745Z,4.10
2019-03-27T12:45:47.316Z,4.60
2019-03-27T12:48:15.931Z,4.03
2019-03-27T12:50:44.636Z,4.00
2019-03-27T12:53:13.296Z,4.57
2019-03-27T12:55:41.874Z,4.50
2019-03-27T12:58:11.893Z,4.20
2019-03-27T13:00:40.904Z,4.30
2019-03-27T13:03:09.464Z,4.33
2019-03-27T13:05:38.033Z,4.30
2019-03-27T13:08:06.579Z,4.20
2019-03-27T13:10:35.249Z,5.07
2019-03-27T13:13:03.864Z,4.67
2019-03-27T13:15:32.444Z,4.07
2019-03-27T13:18:01.077Z,4.17
2019-03-27T13:20:29.687Z,3.33
2019-03-27T13:22:58.272Z,3.57
2019-03-27T13:25:27.160Z,3.00
2019-03-27T13:27:55.710Z,3.37
2019-03-27T13:30:24.304Z,2.87
2019-03-27T13:32:52.807Z,3.17
2019-03-27T13:35:21.344Z,3.23
2019-03-27T13:37:49.948Z,3.30
2019-03-27T13:40:18.649Z,3.43
2019-03-27T13:42:47.203Z,3.17
2019-03-27T13:45:16.296Z,3.60
2019-03-27T13:47:44.843Z,2.93
2019-03-27T13:50:15.757Z,2.90
2019-03-27T13:52:44.313Z,2.60
2019-03-27T13:55:13.146Z,3.10
2019-03-27T13:57:41.779Z,2.93
2019-03-27T14:00:13.594Z,3.20
2019-03-27T14:02:42.231Z,3.80
2019-03-27T14:05:12.555Z,3.77
2019-03-27T14:07:41.205Z,3.33
2019-03-27T14:10:09.948Z,3.80
2019-03-27T14:12:38.444Z,4.30
2019-03-27T14:15:10.351Z,3.77
2019-03-27T14:17:38.916Z,4.13
2019-03-27T14:20:08.526Z,3.70
2019-03-27T14:22:37.145Z,4.50
2019-03-27T14:25:07.865Z,4.20
2019-03-27T14:27:36.733Z,4.07
2019-03-27T14:30:08.149Z,2.90
2019-03-27T14:32:36.894Z,3.90
2019-03-27T14:35:05.695Z,3.90
2019-03-27T14:37:34.229Z,2.90
2019-03-27T14:40:03.080Z,3.63
2019-03-27T14:42:31.671Z,3.50
2019-03-27T14:45:00.387Z,3.87
2019-03-27T14:47:29.060Z,4.10
2019-03-27T14:49:57.602Z,3.27
2019-03-27T14:52:26.177Z,4.60
2019-03-27T14:54:54.752Z,4.67
2019-03-27T14:57:23.254Z,4.30
2019-03-27T14:59:51.833Z,4.07
2019-03-27T15:02:20.374Z,3.97
2019-03-27T15:04:48.906Z,3.50
2019-03-27T15:07:17.475Z,4.20
2019-03-27T15:09:46.038Z,4.00
2019-03-27T15:12:14.632Z,3.80
2019-03-27T15:14:43.190Z,3.50
2019-03-27T15:17:11.710Z,3.70
2019-03-27T15:19:40.270Z,5.00
2019-03-27T15:22:21.458Z,4.20
2019-03-27T15:24:39.049Z,3.97
2019-03-27T15:27:07.691Z,4.40
2019-03-27T15:29:36.249Z,4.17
2019-03-27T15:32:04.913Z,4.20
2019-03-27T15:34:33.449Z,3.80
2019-03-27T15:37:02.022Z,4.53
2019-03-27T15:39:30.590Z,3.70
2019-03-27T15:41:59.216Z,3.63
2019-03-27T15:44:27.778Z,4.10
2019-03-27T15:46:56.394Z,4.30
2019-03-27T15:49:24.964Z,3.50
2019-03-27T15:51:53.883Z,3.20
2019-03-27T15:54:22.384Z,3.43
2019-03-27T15:56:50.957Z,3.80
2019-03-27T15:59:19.525Z,3.87
2019-03-27T16:01:48.133Z,3.60
2019-03-27T16:04:16.739Z,3.53
2019-03-27T16:06:45.332Z,4.13
2019-03-27T16:09:15.023Z,3.93
2019-03-27T16:11:43.638Z,3.30
2019-03-27T16:14:12.235Z,3.47
2019-03-27T16:16:40.831Z,3.63
2019-03-27T16:19:10.115Z,4.93
2019-03-27T16:21:38.788Z,3.70
2019-03-27T16:24:07.328Z,3.27
2019-03-27T16:26:35.936Z,4.10
2019-03-27T16:29:04.625Z,4.63
2019-03-27T16:31:33.237Z,4.10
2019-03-27T16:34:01.797Z,3.70
2019-03-27T16:36:32.398Z,4.70
2019-03-27T16:39:01.014Z,5.00
2019-03-27T16:41:29.563Z,4.80
2019-03-27T16:43:58.202Z,4.13
2019-03-27T16:46:26.844Z,4.70
2019-03-27T16:48:55.379Z,4.67
2019-03-27T16:51:24.322Z,4.70
2019-03-27T16:53:53.228Z,5.33
2019-03-27T16:56:21.792Z,5.00
2019-03-27T16:58:50.517Z,4.40
2019-03-27T17:01:19.057Z,5.27
2019-03-27T17:03:47.699Z,5.30
2019-03-27T17:06:16.253Z,5.30
2019-03-27T17:08:44.864Z,5.27
2019-03-27T17:11:13.474Z,5.13
2019-03-27T17:13:42.052Z,5.63
2019-03-27T17:16:10.642Z,4.70
2019-03-27T17:18:39.227Z,4.90
2019-03-27T17:21:07.851Z,5.90
2019-03-27T17:23:36.488Z,5.20
2019-03-27T17:26:06.248Z,6.10
2019-03-27T17:28:34.907Z,5.93
2019-03-27T17:31:03.557Z,4.80
2019-03-27T17:33:33.387Z,5.53
2019-03-27T17:36:01.987Z,6.20
2019-03-27T17:38:30.677Z,5.53
2019-03-27T17:41:00.907Z,5.20
2019-03-27T17:43:29.542Z,5.20
2019-03-27T17:45:58.147Z,5.10
2019-03-27T17:48:26.783Z,5.83
2019-03-27T17:50:55.365Z,6.37
2019-03-27T17:53:31.579Z,4.40
2019-03-27T17:55:54.213Z,4.80
2019-03-27T17:58:22.842Z,5.57
2019-03-27T18:00:53.089Z,4.30
2019-03-27T18:03:24.010Z,5.97
2019-03-27T18:05:52.689Z,7.67
2019-03-27T18:08:22.646Z,4.50
2019-03-27T18:10:51.550Z,5.43
2019-03-27T18:13:20.302Z,4.77
2019-03-27T18:15:48.913Z,5.07
2019-03-27T18:18:17.619Z,4.77
2019-03-27T18:20:46.318Z,5.00
2019-03-27T18:23:14.950Z,4.43
2019-03-27T18:25:43.998Z,4.47
2019-03-27T18:28:12.630Z,4.80
2019-03-27T18:30:41.197Z,4.90
2019-03-27T18:33:09.835Z,5.50
2019-03-27T18:35:38.455Z,5.40
2019-03-27T18:38:07.088Z,4.50
2019-03-27T18:40:36.942Z,4.87
2019-03-27T18:43:05.534Z,5.10
2019-03-27T18:45:34.181Z,5.00
2019-03-27T18:48:02.760Z,4.87
2019-03-27T18:50:32.883Z,3.80
2019-03-27T18:53:01.502Z,3.73
2019-03-27T18:55:30.142Z,4.17
2019-03-27T18:58:00.727Z,3.67
2019-03-27T19:00:29.562Z,4.03
2019-03-27T19:02:59.867Z,3.70
2019-03-27T19:05:28.586Z,4.00
2019-03-27T19:07:58.668Z,4.30
2019-03-27T19:10:27.305Z,4.30
2019-03-27T19:12:57.564Z,3.77
2019-03-27T19:15:26.299Z,3.90
2019-03-27T19:17:55.756Z,4.27
2019-03-27T19:20:24.491Z,3.40
2019-03-27T19:22:53.124Z,3.93
2019-03-27T19:25:22.210Z,4.37
2019-03-27T19:27:50.946Z,4.40
2019-03-27T19:30:23.759Z,3.80
2019-03-27T19:32:53.019Z,4.00
2019-03-27T19:35:23.116Z,4.43
2019-03-27T19:37:53.845Z,4.50
2019-03-27T19:40:22.545Z,4.20
2019-03-27T19:42:53.848Z,4.20
2019-03-27T19:45:23.817Z,4.53
2019-03-27T19:47:52.842Z,4.27
2019-03-27T19:50:21.546Z,4.73
2019-03-27T19:52:50.519Z,4.77
2019-03-27T19:55:22.113Z,4.67
2019-03-27T19:57:50.834Z,3.90
2019-03-27T20:00:20.995Z,5.30
2019-03-27T20:02:49.696Z,4.97
2019-03-27T20:05:18.393Z,6.00
2019-03-27T20:07:47.064Z,5.10
2019-03-27T20:10:16.178Z,4.90
2019-03-27T20:12:47.111Z,5.63
2019-03-27T20:15:15.825Z,5.03
2019-03-27T20:17:44.529Z,4.60
2019-03-27T20:20:14.467Z,5.93
2019-03-27T20:22:44.014Z,5.70
2019-03-27T20:25:14.872Z,6.20
2019-03-27T20:27:43.477Z,6.03
2019-03-27T20:30:19.649Z,5.70
2019-03-27T20:32:48.318Z,5.83
2019-03-27T20:35:17.648Z,6.63
2019-03-27T20:37:48.843Z,6.70
2019-03-27T20:40:17.670Z,6.20
2019-03-27T20:42:52.120Z,6.60
2019-03-27T20:45:19.396Z,5.90
2019-03-27T20:47:48.127Z,6.93
2019-03-27T20:50:18.550Z,7.10
2019-03-27T20:52:47.194Z,7.50
2019-03-27T20:55:29.260Z,7.63
2019-03-27T20:57:46.451Z,7.90
2019-03-27T21:00:16.758Z,7.30
2019-03-27T21:02:49.878Z,7.93
2019-03-27T21:05:18.507Z,6.80
2019-03-27T21:07:47.114Z,7.80
2019-03-27T21:10:16.043Z,7.77
2019-03-27T21:12:44.711Z,7.30
2019-03-27T21:15:15.348Z,6.87
2019-03-27T21:17:44.228Z,7.80
2019-03-27T21:20:13.019Z,8.37
2019-03-27T21:22:41.622Z,8.83
2019-03-27T21:25:10.388Z,8.20
2019-03-27T21:27:38.957Z,8.77
2019-03-27T21:30:09.345Z,8.63
2019-03-27T21:32:38.000Z,7.93
2019-03-27T21:35:07.137Z,8.30
2019-03-27T21:37:35.803Z,8.13
2019-03-27T21:40:06.901Z,8.07
2019-03-27T21:42:35.507Z,9.10
2019-03-27T21:45:09.043Z,9.10
2019-03-27T21:47:37.617Z,8.77
2019-03-27T21:50:07.951Z,8.47
2019-03-27T21:52:36.589Z,7.83
2019-03-27T21:55:21.871Z,8.20
2019-03-27T21:57:39.711Z,9.57
2019-03-27T22:00:08.963Z,8.80
2019-03-27T22:02:37.575Z,9.30
2019-03-27T22:05:06.895Z,9.17
2019-03-27T22:07:35.381Z,9.30
2019-03-27T22:10:06.530Z,8.67
2019-03-27T22:12:38.019Z,9.90
2019-03-27T22:15:07.838Z,9.30
2019-03-27T22:17:36.409Z,9.37
2019-03-27T22:20:07.004Z,11.00
2019-03-27T22:22:35.551Z,8.70
2019-03-27T22:25:06.321Z,9.97
2019-03-27T22:27:34.901Z,9.50
2019-03-27T22:30:04.877Z,10.90
2019-03-27T22:32:33.478Z,12.40
2019-03-27T22:35:02.042Z,10.40
2019-03-27T22:37:30.617Z,12.27
2019-03-27T22:39:59.174Z,10.80
2019-03-27T22:42:27.734Z,10.10
2019-03-27T22:44:56.242Z,11.47
2019-03-27T22:47:24.834Z,12.10
2019-03-27T22:49:53.314Z,12.40
2019-03-27T22:52:21.880Z,11.17
2019-03-27T22:54:50.355Z,10.83
2019-03-27T22:57:18.852Z,11.20
2019-03-27T22:59:47.461Z,10.70
2019-03-27T23:02:16.115Z,10.07
2019-03-27T23:04:44.601Z,11.80
2019-03-27T23:07:13.125Z,13.53
2019-03-27T23:09:41.642Z,11.07
2019-03-27T23:12:10.264Z,9.73
2019-03-27T23:14:38.818Z,9.30
2019-03-27T23:17:07.295Z,10.70
2019-03-27T23:19:35.782Z,11.27
2019-03-27T23:22:04.263Z,9.33
2019-03-27T23:24:32.839Z,9.90
2019-03-27T23:27:01.317Z,9.83
2019-03-27T23:29:29.798Z,9.93
2019-03-27T23:31:58.297Z,10.03
2019-03-27T23:34:26.798Z,8.93
2019-03-27T23:36:55.334Z,9.70
2019-03-27T23:39:24.129Z,9.57
2019-03-27T23:41:52.696Z,9.57
2019-03-27T23:44:21.273Z,8.83
2019-03-27T23:46:49.806Z,8.13
2019-03-27T23:49:18.407Z,8.83
2019-03-27T23:51:46.939Z,8.47
2019-03-27T23:54:15.541Z,8.50
2019-03-27T23:56:44.024Z,8.50
2019-03-27T23:59:12.578Z,8.77
